Time;durP1;ratioP1;P1;durP2;ratioP2;P2;SDS_P1;SDS_P2;PMS_P1;PMS_P2;Temp;Humidity;BMP_temperature;BMP_pressure;BME280_temperature;BME280_humidity;BME280_pressure;Samples;Min_cycle;Max_cycle;Signal;HPM_P1;HPM_P2
2023/08/09 00:01:39;;;;;;;17.80;13.18;;;;;;;13.96;100.00;101123.53;5091105;28;20027;-64
2023/08/09 00:04:05;;;;;;;18.23;14.00;;;;;;;13.90;100.00;101127.63;5071690;28;20507;-64
2023/08/09 00:06:30;;;;;;;18.27;13.77;;;;;;;13.91;100.00;101123.69;5091228;28;20050;-64
2023/08/09 00:08:56;;;;;;;18.23;14.07;;;;;;;13.93;100.00;101134.50;5091239;28;20070;-64
2023/08/09 00:11:21;;;;;;;19.27;13.90;;;;;;;13.92;100.00;101142.03;5091021;28;20028;-64
2023/08/09 00:13:46;;;;;;;18.40;14.02;;;;;;;13.95;100.00;101135.00;5091004;28;20040;-64
2023/08/09 00:16:12;;;;;;;18.95;14.60;;;;;;;13.95;100.00;101137.78;5091055;28;20080;-64
2023/08/09 00:18:38;;;;;;;18.60;13.90;;;;;;;13.94;100.00;101131.38;5089678;28;20113;-64
2023/08/09 00:21:04;;;;;;;18.25;13.93;;;;;;;13.93;100.00;101128.94;5091085;28;20028;-64
2023/08/09 00:23:31;;;;;;;18.17;13.73;;;;;;;13.92;100.00;101127.28;5091021;28;20552;-65
2023/08/09 00:25:57;;;;;;;18.30;14.10;;;;;;;13.88;100.00;101135.47;5090939;28;20028;-64
2023/08/09 00:28:23;;;;;;;18.33;14.20;;;;;;;13.83;100.00;101132.84;5090822;28;20120;-64
2023/08/09 00:30:48;;;;;;;18.40;14.48;;;;;;;13.84;100.00;101143.63;5090903;28;20024;-65
2023/08/09 00:33:13;;;;;;;19.13;14.57;;;;;;;13.83;100.00;101141.19;5090996;28;20028;-64
2023/08/09 00:35:39;;;;;;;18.80;14.18;;;;;;;13.81;100.00;101135.91;5090919;28;20043;-64
2023/08/09 00:38:05;;;;;;;19.60;14.27;;;;;;;13.80;100.00;101142.63;5091088;28;20024;-64
2023/08/09 00:40:31;;;;;;;18.20;13.77;;;;;;;13.80;100.00;101139.84;5091272;28;20440;-64
2023/08/09 00:42:56;;;;;;;18.27;14.18;;;;;;;13.71;100.00;101130.63;5091022;28;20029;-64
2023/08/09 00:45:22;;;;;;;18.60;14.30;;;;;;;13.69;100.00;101133.75;5090829;28;20032;-64
2023/08/09 00:47:47;;;;;;;18.85;14.25;;;;;;;13.66;100.00;101133.56;5090732;28;20039;-64
2023/08/09 00:50:13;;;;;;;18.42;13.98;;;;;;;13.65;100.00;101132.75;5090639;28;20028;-64
2023/08/09 00:52:38;;;;;;;17.98;14.00;;;;;;;13.59;100.00;101133.22;5090557;28;20040;-64
2023/08/09 00:55:04;;;;;;;17.83;14.07;;;;;;;13.51;100.00;101138.41;5090570;28;20020;-64
2023/08/09 00:57:30;;;;;;;17.80;14.10;;;;;;;13.52;100.00;101142.00;5090473;28;20108;-65
2023/08/09 00:59:56;;;;;;;18.08;14.00;;;;;;;13.52;100.00;101139.22;5089107;28;20020;-64
2023/08/09 01:02:21;;;;;;;18.35;13.65;;;;;;;13.53;100.00;101147.25;5090608;28;20027;-64
2023/08/09 01:04:47;;;;;;;19.48;14.80;;;;;;;13.53;100.00;101146.44;5090503;28;20020;-64
2023/08/09 01:07:35;;;;;;;18.55;14.45;;;;;;;13.55;100.00;101150.53;5094103;28;20016;-64
2023/08/09 01:10:22;;;;;;;18.52;14.35;;;;;;;13.58;100.00;101154.63;5093985;28;20035;-64
2023/08/09 01:12:52;;;;;;;18.88;14.27;;;;;;;13.60;100.00;101154.31;5094123;28;20124;-65
2023/08/09 01:15:19;;;;;;;18.50;14.73;;;;;;;13.56;100.00;101149.41;5093961;28;20020;-65
2023/08/09 01:17:48;;;;;;;19.23;14.77;;;;;;;13.56;100.00;101154.94;5093923;28;20102;-64
2023/08/09 01:20:16;;;;;;;18.02;14.20;;;;;;;13.56;100.00;101154.13;5093830;28;20054;-65
2023/08/09 01:22:51;;;;;;;18.23;14.73;;;;;;;13.54;100.00;101151.66;5093875;28;20055;-64
2023/08/09 01:25:16;;;;;;;18.98;14.60;;;;;;;13.55;100.00;101158.06;5093883;28;20032;-65
2023/08/09 01:27:42;;;;;;;19.30;14.80;;;;;;;13.54;100.00;101151.66;5093632;28;20081;-65
2023/08/09 01:30:09;;;;;;;18.58;15.00;;;;;;;13.50;100.00;101155.41;5093414;28;20070;-64
2023/08/09 01:32:35;;;;;;;18.55;14.93;;;;;;;13.47;100.00;101154.09;5093540;28;20037;-64
2023/08/09 01:35:01;;;;;;;19.75;15.30;;;;;;;13.37;100.00;101157.91;5093593;28;20497;-65
2023/08/09 01:37:32;;;;;;;20.30;15.50;;;;;;;13.29;100.00;101155.09;5093625;28;20499;-64
2023/08/09 01:40:07;;;;;;;19.13;14.90;;;;;;;13.17;100.00;101159.25;5093485;28;20035;-65
2023/08/09 01:42:33;;;;;;;18.25;14.13;;;;;;;13.16;100.00;101159.59;5093745;28;20038;-64
2023/08/09 01:44:59;;;;;;;19.02;14.73;;;;;;;13.08;100.00;101163.94;5093200;28;20103;-65
2023/08/09 01:47:25;;;;;;;20.00;14.75;;;;;;;13.02;100.00;101165.19;5093461;28;20028;-65
2023/08/09 01:49:51;;;;;;;19.08;15.13;;;;;;;12.95;100.00;101155.34;5093126;28;20078;-65
2023/08/09 01:52:17;;;;;;;18.48;14.70;;;;;;;12.89;100.00;101156.59;5093398;28;20052;-65
2023/08/09 01:54:42;;;;;;;19.15;14.90;;;;;;;12.85;100.00;101165.88;5093124;28;20023;-65
2023/08/09 01:57:07;;;;;;;18.95;14.82;;;;;;;12.80;100.00;101175.16;5093007;28;20056;-65
2023/08/09 01:59:33;;;;;;;18.55;14.80;;;;;;;12.76;100.00;101171.34;5093008;28;20030;-65
2023/08/09 02:01:58;;;;;;;19.60;15.18;;;;;;;12.74;100.00;101182.75;5093096;28;20070;-65
2023/08/09 02:04:24;;;;;;;19.17;14.88;;;;;;;12.71;100.00;101179.78;5093061;28;20039;-65
2023/08/09 02:06:49;;;;;;;18.73;15.00;;;;;;;12.69;100.00;101188.44;5092829;28;20309;-65
2023/08/09 02:09:14;;;;;;;18.77;14.50;;;;;;;12.64;100.00;101181.06;5092768;28;20109;-65
2023/08/09 02:11:40;;;;;;;20.00;15.68;;;;;;;12.59;100.00;101183.94;5092664;28;20016;-64
2023/08/09 02:14:05;;;;;;;18.65;14.52;;;;;;;12.53;100.00;101185.19;5092769;28;20028;-65
2023/08/09 02:16:30;;;;;;;18.52;14.57;;;;;;;12.50;100.00;101188.56;5092265;28;20054;-65
2023/08/09 02:18:56;;;;;;;18.92;15.27;;;;;;;12.46;100.00;101184.78;5092646;28;20110;-65
2023/08/09 02:21:21;;;;;;;20.05;15.18;;;;;;;12.42;100.00;101183.75;5092662;28;20020;-64
2023/08/09 02:23:47;;;;;;;20.42;15.52;;;;;;;12.40;100.00;101194.34;5091136;28;20024;-65
2023/08/09 02:26:18;;;;;;;19.60;15.05;;;;;;;12.35;100.00;101194.47;5092720;28;20367;-65
2023/08/09 02:28:44;;;;;;;19.67;15.48;;;;;;;12.30;100.00;101196.19;5092324;28;20048;-65
2023/08/09 02:31:10;;;;;;;21.08;16.00;;;;;;;12.25;100.00;101190.78;5092346;28;20023;-65
2023/08/09 02:33:36;;;;;;;20.02;15.55;;;;;;;12.30;100.00;101198.97;5092373;28;20036;-65
2023/08/09 02:36:02;;;;;;;19.65;15.27;;;;;;;12.29;100.00;101194.56;5092424;28;20031;-65
2023/08/09 02:38:28;;;;;;;20.25;15.63;;;;;;;12.23;100.00;101193.03;5092333;28;20107;-65
2023/08/09 02:40:54;;;;;;;19.90;15.73;;;;;;;12.26;100.00;101202.66;5092376;28;20059;-65
2023/08/09 02:43:20;;;;;;;21.60;15.52;;;;;;;12.23;100.00;101206.09;5092149;28;20057;-65
2023/08/09 02:45:46;;;;;;;19.30;15.43;;;;;;;12.23;100.00;101209.66;5092139;28;20032;-65
2023/08/09 02:48:12;;;;;;;20.50;16.25;;;;;;;12.20;100.00;101207.50;5092106;28;20063;-65
2023/08/09 02:50:39;;;;;;;20.00;16.67;;;;;;;12.21;100.00;101217.47;5092281;28;20494;-65
2023/08/09 02:53:05;;;;;;;20.48;16.33;;;;;;;12.22;100.00;101212.75;5092128;28;20032;-65
2023/08/09 02:55:31;;;;;;;19.98;16.17;;;;;;;12.19;100.00;101207.81;5092045;28;20089;-65
2023/08/09 02:57:57;;;;;;;20.90;16.58;;;;;;;12.20;100.00;101218.59;5092129;28;20024;-65
2023/08/09 03:00:23;;;;;;;19.58;15.95;;;;;;;12.20;100.00;101226.91;5091890;28;20038;-64
2023/08/09 03:02:49;;;;;;;21.02;16.85;;;;;;;12.21;100.00;101231.34;5091878;28;20107;-65
2023/08/09 03:05:15;;;;;;;21.08;16.77;;;;;;;12.20;100.00;101231.66;5090380;28;20070;-65
2023/08/09 03:07:41;;;;;;;21.50;17.15;;;;;;;12.21;100.00;101228.56;5091693;28;20028;-65
2023/08/09 03:10:07;;;;;;;23.42;18.02;;;;;;;12.21;100.00;101231.34;5091656;28;20058;-65
2023/08/09 03:12:34;;;;;;;22.60;16.75;;;;;;;12.22;100.00;101235.75;5091614;28;20020;-65
2023/08/09 03:14:59;;;;;;;22.65;16.08;;;;;;;12.21;100.00;101227.75;5091747;28;20043;-65
2023/08/09 03:17:25;;;;;;;21.98;16.63;;;;;;;12.21;100.00;101234.09;5091867;28;20086;-65
2023/08/09 03:19:50;;;;;;;25.17;16.83;;;;;;;12.20;100.00;101223.34;5091635;28;20028;-65
2023/08/09 03:22:16;;;;;;;37.50;18.55;;;;;;;12.14;100.00;101217.88;5091629;28;20103;-65
2023/08/09 03:24:42;;;;;;;24.25;17.58;;;;;;;12.15;100.00;101229.81;5091623;28;20031;-65
2023/08/09 03:27:08;;;;;;;24.35;18.08;;;;;;;12.14;100.00;101233.69;5091282;28;20021;-65
2023/08/09 03:29:33;;;;;;;23.60;18.40;;;;;;;12.08;100.00;101241.28;5090899;28;20054;-65
2023/08/09 03:31:59;;;;;;;22.05;18.00;;;;;;;12.06;100.00;101240.78;5091407;28;20427;-65
2023/08/09 03:34:24;;;;;;;21.48;17.67;;;;;;;11.98;100.00;101242.31;5091391;28;20036;-65
2023/08/09 03:36:49;;;;;;;21.85;17.63;;;;;;;11.91;100.00;101254.91;5091338;28;20423;-65
2023/08/09 03:39:15;;;;;;;21.02;16.77;;;;;;;11.84;100.00;101250.59;5091310;28;20328;-65
2023/08/09 03:41:41;;;;;;;21.60;16.88;;;;;;;11.84;100.00;101255.28;5091326;28;20028;-65
2023/08/09 03:44:06;;;;;;;20.70;17.20;;;;;;;11.81;100.00;101253.97;5091150;28;20523;-64
2023/08/09 03:46:32;;;;;;;21.60;17.83;;;;;;;11.81;100.00;101266.97;5091075;28;20047;-65
2023/08/09 03:48:57;;;;;;;21.75;18.25;;;;;;;11.80;100.00;101271.72;5091209;28;20024;-65
2023/08/09 03:51:23;;;;;;;22.13;17.67;;;;;;;11.78;100.00;101271.19;5091010;28;20039;-64
2023/08/09 03:53:48;;;;;;;22.50;17.42;;;;;;;11.74;100.00;101266.56;5091176;28;20056;-65
2023/08/09 03:56:13;;;;;;;20.98;17.17;;;;;;;11.78;100.00;101262.88;5089638;28;20149;-65
2023/08/09 03:58:39;;;;;;;20.55;16.42;;;;;;;11.80;100.00;101262.59;5091019;28;20054;-65
2023/08/09 04:01:04;;;;;;;21.65;17.10;;;;;;;11.82;100.00;101268.63;5091056;28;20126;-65
2023/08/09 04:03:29;;;;;;;20.98;16.83;;;;;;;11.83;100.00;101278.59;5090985;28;20184;-64
2023/08/09 04:05:55;;;;;;;20.55;15.98;;;;;;;11.80;100.00;101268.94;5090914;28;20031;-65
2023/08/09 04:08:21;;;;;;;20.65;16.90;;;;;;;11.82;100.00;101280.56;5090677;28;20111;-65
2023/08/09 04:10:47;;;;;;;21.60;17.88;;;;;;;11.82;100.00;101276.94;5090755;28;20024;-64
2023/08/09 04:13:12;;;;;;;20.88;17.33;;;;;;;11.83;100.00;101281.38;5090742;28;20050;-65
2023/08/09 04:15:38;;;;;;;20.40;16.38;;;;;;;11.82;100.00;101276.94;5090674;28;20028;-65
2023/08/09 04:18:03;;;;;;;19.85;15.25;;;;;;;11.83;100.00;101284.13;5090806;28;20395;-65
2023/08/09 04:20:31;;;;;;;19.90;15.38;;;;;;;11.83;100.00;101284.13;5090822;28;20048;-65
2023/08/09 04:22:57;;;;;;;20.55;16.10;;;;;;;11.82;100.00;101283.34;5090846;28;20434;-65
2023/08/09 04:25:22;;;;;;;20.20;15.77;;;;;;;11.82;100.00;101280.56;5090626;28;20028;-65
2023/08/09 04:27:48;;;;;;;19.38;15.18;;;;;;;11.79;100.00;101275.63;5090559;28;20392;-65
2023/08/09 04:30:14;;;;;;;20.33;15.55;;;;;;;11.81;100.00;101278.91;5090770;28;20069;-65
2023/08/09 04:32:39;;;;;;;19.83;15.35;;;;;;;11.80;100.00;101284.78;5090583;28;20031;-65
2023/08/09 04:35:06;;;;;;;20.50;15.63;;;;;;;11.82;100.00;101282.50;5090646;28;20104;-65
2023/08/09 04:37:31;;;;;;;19.73;14.77;;;;;;;11.85;100.00;101298.53;5090552;28;20055;-65
2023/08/09 04:39:57;;;;;;;19.95;14.93;;;;;;;11.88;100.00;101291.53;5092618;28;20436;-65
2023/08/09 04:42:22;;;;;;;20.08;14.55;;;;;;;11.89;100.00;101295.97;5094551;28;20513;-65
2023/08/09 04:44:48;;;;;;;20.10;15.05;;;;;;;11.90;100.00;101298.47;5094497;28;20024;-65
2023/08/09 04:47:14;;;;;;;20.17;14.52;;;;;;;11.96;100.00;101304.69;5094516;28;20134;-65
2023/08/09 04:49:39;;;;;;;20.23;14.40;;;;;;;12.00;100.00;101312.13;5094289;28;20480;-65
2023/08/09 04:52:04;;;;;;;19.95;15.30;;;;;;;12.06;100.00;101317.63;5094306;28;20095;-66
2023/08/09 04:54:31;;;;;;;20.73;15.10;;;;;;;12.09;100.00;101312.28;5094311;28;20476;-65
2023/08/09 04:56:56;;;;;;;20.48;14.82;;;;;;;12.17;100.00;101313.53;5094128;28;20085;-66
2023/08/09 04:59:22;;;;;;;19.73;14.80;;;;;;;12.26;100.00;101313.63;5094324;28;20028;-65
2023/08/09 05:01:47;;;;;;;19.23;14.13;;;;;;;12.32;100.00;101312.44;5094145;28;20039;-65
2023/08/09 05:04:12;;;;;;;19.52;14.75;;;;;;;12.39;100.00;101310.06;5094288;28;20032;-66
2023/08/09 05:06:39;;;;;;;19.88;14.73;;;;;;;12.44;100.00;101315.50;5094201;28;20028;-66
2023/08/09 05:09:05;;;;;;;19.50;14.57;;;;;;;12.51;100.00;101317.88;5094086;28;20028;-65
2023/08/09 05:11:30;;;;;;;19.63;14.60;;;;;;;12.58;100.00;101325.78;5093958;28;20034;-65
2023/08/09 05:13:56;;;;;;;20.33;14.70;;;;;;;12.67;100.00;101325.88;5093927;28;20107;-65
2023/08/09 05:16:24;;;;;;;20.58;14.60;;;;;;;12.75;100.00;101330.72;5093979;28;20024;-66
2023/08/09 05:18:50;;;;;;;20.30;14.90;;;;;;;12.83;100.00;101335.56;5094025;28;20043;-65
2023/08/09 05:21:15;;;;;;;20.77;15.23;;;;;;;12.88;100.00;101320.75;5093912;28;20028;-65
2023/08/09 05:23:40;;;;;;;21.45;15.73;;;;;;;12.98;100.00;101337.19;5093809;28;20114;-65
2023/08/09 05:26:06;;;;;;;21.58;15.77;;;;;;;13.06;100.00;101335.63;5093675;28;20047;-65
2023/08/09 05:28:31;;;;;;;21.75;16.00;;;;;;;13.14;100.00;101329.31;5093446;28;20044;-65
2023/08/09 05:30:56;;;;;;;21.63;16.30;;;;;;;13.25;100.00;101346.59;5093485;28;20028;-64
2023/08/09 05:33:22;;;;;;;22.60;16.88;;;;;;;13.35;100.00;101349.16;5093397;28;20023;-64
2023/08/09 05:35:47;;;;;;;21.80;16.75;;;;;;;13.44;100.00;101354.00;5093294;28;20456;-64
2023/08/09 05:38:12;;;;;;;23.60;18.35;;;;;;;13.50;100.00;101348.03;5093249;28;20032;-64
2023/08/09 05:40:38;;;;;;;24.15;18.92;;;;;;;13.59;100.00;101347.25;5093235;28;20032;-65
2023/08/09 05:43:03;;;;;;;24.20;18.38;;;;;;;13.70;100.00;101348.63;5093102;28;20395;-65
2023/08/09 05:45:29;;;;;;;24.90;19.55;;;;;;;13.79;100.00;101355.09;5092871;28;20039;-64
2023/08/09 05:47:54;;;;;;;23.67;18.63;;;;;;;13.88;100.00;101353.22;5093168;28;20024;-65
2023/08/09 05:50:19;;;;;;;24.55;19.50;;;;;;;13.98;100.00;101354.09;5092670;28;20020;-64
2023/08/09 05:52:44;;;;;;;24.88;20.25;;;;;;;14.03;100.00;101353.97;5091197;28;20088;-65
2023/08/09 05:55:10;;;;;;;25.90;20.48;;;;;;;14.09;100.00;101355.47;5093175;28;20081;-64
2023/08/09 05:57:36;;;;;;;24.38;20.52;;;;;;;14.14;100.00;101348.94;5093046;28;20046;-64
2023/08/09 06:00:04;;;;;;;25.67;21.20;;;;;;;14.18;100.00;101355.53;5093059;28;20472;-65
2023/08/09 06:02:33;;;;;;;25.52;20.70;;;;;;;14.20;100.00;101348.50;5092929;28;20032;-64
2023/08/09 06:04:59;;;;;;;26.23;21.63;;;;;;;14.22;100.00;101348.16;5092963;28;20026;-65
2023/08/09 06:07:24;;;;;;;27.13;20.85;;;;;;;14.23;100.00;101355.38;5092814;28;20430;-64
2023/08/09 06:09:49;;;;;;;25.95;22.02;;;;;;;14.24;100.00;101357.03;5092645;28;20035;-65
2023/08/09 06:12:15;;;;;;;26.50;21.48;;;;;;;14.24;100.00;101367.34;5092638;28;20032;-64
2023/08/09 06:14:40;;;;;;;26.10;21.85;;;;;;;14.26;100.00;101371.44;5092701;28;20107;-64
2023/08/09 06:17:06;;;;;;;26.45;22.13;;;;;;;14.28;100.00;101373.91;5092662;28;20024;-65
2023/08/09 06:19:33;;;;;;;26.08;21.95;;;;;;;14.27;100.00;101375.88;5092661;28;20028;-64
2023/08/09 06:21:59;;;;;;;27.80;23.17;;;;;;;14.24;100.00;101387.63;5092267;28;20115;-65
2023/08/09 06:24:24;;;;;;;27.45;23.80;;;;;;;14.24;100.00;101397.97;5092683;28;20035;-65
2023/08/09 06:26:50;;;;;;;27.92;23.33;;;;;;;14.28;100.00;101398.94;5092334;28;20028;-64
2023/08/09 06:29:15;;;;;;;28.25;22.98;;;;;;;14.26;100.00;101402.06;5092120;28;20491;-65
2023/08/09 06:31:41;;;;;;;28.40;22.98;;;;;;;14.30;100.00;101403.09;5092232;28;20056;-65
2023/08/09 06:34:08;;;;;;;29.25;23.58;;;;;;;14.33;100.00;101402.44;5092397;28;20020;-65
2023/08/09 06:36:34;;;;;;;27.48;21.95;;;;;;;14.40;100.00;101399.19;5092117;28;20098;-65
2023/08/09 06:38:59;;;;;;;27.45;22.58;;;;;;;14.39;100.00;101394.75;5092190;28;20491;-64
2023/08/09 06:41:24;;;;;;;28.27;23.10;;;;;;;14.42;100.00;101402.50;5092078;28;20035;-64
2023/08/09 06:43:50;;;;;;;29.58;24.20;;;;;;;14.42;100.00;101399.69;5092098;28;20028;-65
2023/08/09 06:46:15;;;;;;;30.30;24.38;;;;;;;14.46;100.00;101402.66;5091981;28;20043;-65
2023/08/09 06:48:40;;;;;;;31.15;24.73;;;;;;;14.45;100.00;101407.41;5092020;28;20039;-65
2023/08/09 06:51:06;;;;;;;32.97;26.88;;;;;;;14.54;100.00;101413.03;5091984;28;20103;-65
2023/08/09 06:53:31;;;;;;;31.88;26.17;;;;;;;14.64;100.00;101409.16;5091816;28;20533;-65
2023/08/09 06:55:56;;;;;;;30.08;25.65;;;;;;;14.67;100.00;101408.53;5091885;28;20059;-65
2023/08/09 06:58:22;;;;;;;32.13;25.55;;;;;;;14.67;100.00;101425.25;5091789;28;20024;-65
2023/08/09 07:00:47;;;;;;;29.92;25.20;;;;;;;14.73;100.00;101425.91;5091751;28;20103;-65
2023/08/09 07:03:13;;;;;;;29.77;25.10;;;;;;;14.84;100.00;101432.88;5091745;28;20198;-65
2023/08/09 07:05:40;;;;;;;31.35;25.27;;;;;;;14.88;100.00;101419.91;5091823;28;20028;-65
2023/08/09 07:08:05;;;;;;;30.73;23.90;;;;;;;14.92;100.00;101426.50;5090401;28;20037;-65
2023/08/09 07:10:31;;;;;;;30.17;24.65;;;;;;;14.91;100.00;101427.63;5091772;28;20032;-65
2023/08/09 07:12:56;;;;;;;30.45;24.95;;;;;;;14.94;100.00;101431.75;5091798;28;20028;-66
2023/08/09 07:15:22;;;;;;;29.70;24.02;;;;;;;14.88;100.00;101431.06;5091644;28;20031;-65
2023/08/09 07:17:47;;;;;;;29.42;24.20;;;;;;;14.81;100.00;101434.34;5091679;28;20024;-65
2023/08/09 07:20:14;;;;;;;29.55;24.45;;;;;;;14.84;100.00;101434.81;5091803;28;20180;-65
2023/08/09 07:22:40;;;;;;;30.38;24.13;;;;;;;14.91;100.00;101427.63;5091682;28;20081;-65
2023/08/09 07:25:07;;;;;;;31.10;24.70;;;;;;;14.97;100.00;101434.69;5091509;28;20451;-65
2023/08/09 07:27:33;;;;;;;30.38;24.30;;;;;;;15.03;100.00;101429.00;5091736;28;20110;-64
2023/08/09 07:29:59;;;;;;;30.67;24.10;;;;;;;15.06;100.00;101429.16;5091512;28;20321;-65
2023/08/09 07:32:26;;;;;;;29.33;23.60;;;;;;;15.11;100.00;101440.16;5091511;28;20135;-64
2023/08/09 07:34:52;;;;;;;28.35;21.92;;;;;;;15.18;100.00;101444.47;5091385;28;20027;-67
2023/08/09 07:37:17;;;;;;;29.73;23.85;;;;;;;15.18;100.00;101444.47;5091231;28;20028;-65
2023/08/09 07:39:43;;;;;;;30.83;24.35;;;;;;;15.23;100.00;101444.31;5091241;28;20060;-65
2023/08/09 07:42:10;;;;;;;28.27;22.52;;;;;;;15.33;100.00;101441.22;5091245;28;20031;-65
2023/08/09 07:44:35;;;;;;;28.38;22.67;;;;;;;15.42;100.00;101444.84;5091360;28;20042;-65
2023/08/09 07:47:00;;;;;;;27.45;22.63;;;;;;;15.50;100.00;101454.38;5091086;28;20036;-65
2023/08/09 07:49:26;;;;;;;29.00;22.75;;;;;;;15.63;100.00;101460.16;5091059;28;20020;-65
2023/08/09 07:51:51;;;;;;;29.13;23.75;;;;;;;15.68;100.00;101457.19;5090846;28;20028;-65
2023/08/09 07:54:17;;;;;;;30.02;23.13;;;;;;;15.70;100.00;101461.28;5089625;28;20067;-64
2023/08/09 07:56:43;;;;;;;28.95;23.55;;;;;;;15.72;100.00;101464.59;5091153;28;20024;-65
2023/08/09 07:59:09;;;;;;;28.38;22.70;;;;;;;15.82;100.00;101457.84;5091001;28;20043;-65
2023/08/09 08:01:35;;;;;;;27.45;20.98;;;;;;;15.90;100.00;101459.03;5090831;28;20032;-65
2023/08/09 08:04:00;;;;;;;27.02;20.02;;;;;;;15.98;100.00;101466.59;5091012;28;20039;-65
2023/08/09 08:06:25;;;;;;;26.98;21.05;;;;;;;16.09;100.00;101469.91;5089545;28;20059;-65
2023/08/09 08:08:51;;;;;;;26.05;20.58;;;;;;;16.22;100.00;101476.44;5091096;28;20020;-65
2023/08/09 08:11:16;;;;;;;27.20;20.15;;;;;;;16.32;100.00;101476.13;5091075;28;20032;-65
2023/08/09 08:13:42;;;;;;;25.50;18.85;;;;;;;16.47;100.00;101469.19;5089647;28;20332;-65
2023/08/09 08:16:07;;;;;;;25.33;19.02;;;;;;;16.62;100.00;101475.41;5095502;28;20028;-65
2023/08/09 08:18:32;;;;;;;25.95;18.85;;;;;;;16.77;100.00;101483.22;5095035;28;20032;-65
2023/08/09 08:21:00;;;;;;;25.42;18.40;;;;;;;16.84;100.00;101486.34;5095001;28;20535;-66
2023/08/09 08:23:25;;;;;;;25.02;17.13;;;;;;;17.01;100.00;101487.47;5095405;28;20426;-65
2023/08/09 08:25:51;;;;;;;22.92;16.23;;;;;;;17.03;100.00;101493.56;5095320;28;20065;-65
2023/08/09 08:28:16;;;;;;;22.60;16.08;;;;;;;17.07;100.00;101500.09;5094928;28;20048;-65
2023/08/09 08:30:42;;;;;;;23.48;16.52;;;;;;;17.08;100.00;101498.94;5095014;28;20024;-65
2023/08/09 08:33:08;;;;;;;22.83;16.42;;;;;;;17.13;100.00;101497.94;5094677;28;20133;-65
2023/08/09 08:35:36;;;;;;;22.60;15.15;;;;;;;17.13;100.00;101497.94;5094519;28;20310;-65
2023/08/09 08:38:02;;;;;;;21.73;15.15;;;;;;;17.13;100.00;101497.94;5094803;28;20028;-65
2023/08/09 08:40:31;;;;;;;23.10;15.77;;;;;;;17.17;100.00;101495.28;5094544;28;20036;-65
2023/08/09 08:42:57;;;;;;;20.80;13.73;;;;;;;17.24;100.00;101504.81;5094689;28;20020;-66
2023/08/09 08:45:23;;;;;;;21.08;14.38;;;;;;;17.21;100.00;101510.25;5094556;28;20024;-66
2023/08/09 08:47:48;;;;;;;23.13;15.05;;;;;;;17.27;100.00;101517.28;5094692;28;20453;-67
2023/08/09 08:50:15;;;;;;;24.02;15.95;;;;;;;17.39;100.00;101514.63;5094783;28;20073;-68
2023/08/09 08:52:46;;;;;;;20.67;14.68;;;;;;;17.41;100.00;101515.09;5094787;28;20024;-67
2023/08/09 08:55:12;;;;;;;19.88;14.98;;;;;;;17.50;100.00;101522.63;5094739;28;20149;-67
2023/08/09 08:57:39;;;;;;;20.98;15.10;;;;;;;17.63;100.00;101515.94;5094362;28;20503;-67
2023/08/09 09:00:15;;;;;;;20.27;14.02;;;;;;;17.76;100.00;101517.69;5094276;28;20024;-67
2023/08/09 09:02:40;;;;;;;18.90;13.13;;;;;;;17.98;100.00;101523.34;5092745;28;20329;-67
2023/08/09 09:05:09;;;;;;;19.77;14.00;;;;;;;18.18;99.58;101533.72;5092877;28;20031;-67
2023/08/09 09:07:36;;;;;;;20.92;13.98;;;;;;;18.30;99.94;101526.56;5094128;28;20039;-67
2023/08/09 09:10:06;;;;;;;21.42;14.88;;;;;;;18.37;100.00;101521.22;5092849;28;20034;-67
2023/08/09 09:12:35;;;;;;;20.55;12.98;;;;;;;18.42;96.71;101523.78;5094146;28;20027;-67
2023/08/09 09:15:04;;;;;;;20.63;14.27;;;;;;;18.51;96.34;101521.75;5093958;28;20028;-67
2023/08/09 09:17:29;;;;;;;21.08;14.40;;;;;;;18.60;96.88;101532.06;5094092;28;20024;-67
2023/08/09 09:19:55;;;;;;;20.98;14.10;;;;;;;18.67;96.66;101533.13;5093954;28;20105;-67
2023/08/09 09:22:34;;;;;;;21.35;14.07;;;;;;;18.74;97.23;101534.56;5094031;28;20128;-67
2023/08/09 09:24:59;;;;;;;21.80;15.02;;;;;;;18.87;98.96;101544.63;5093766;28;20036;-68
2023/08/09 09:27:33;;;;;;;21.20;14.55;;;;;;;19.04;96.32;101540.00;5092690;28;20024;-67
2023/08/09 09:30:12;;;;;;;19.50;13.40;;;;;;;18.89;91.97;101541.50;5093962;28;20037;-68
2023/08/09 09:32:40;;;;;;;19.65;13.65;;;;;;;18.77;91.55;101545.88;5093763;28;20034;-68
2023/08/09 09:35:08;;;;;;;18.95;12.85;;;;;;;18.81;92.21;101551.63;5093795;28;20027;-68
2023/08/09 09:37:35;;;;;;;20.73;14.52;;;;;;;18.74;91.58;101540.16;5093939;28;20102;-68
2023/08/09 09:40:00;;;;;;;19.15;12.90;;;;;;;18.91;92.42;101548.38;5093698;28;20031;-68
2023/08/09 09:42:33;;;;;;;19.98;14.00;;;;;;;19.06;89.11;101554.50;5093478;28;20464;-68
2023/08/09 09:45:06;;;;;;;18.30;13.10;;;;;;;19.03;89.21;101544.81;5093425;28;20028;-68
2023/08/09 09:47:33;;;;;;;20.07;13.93;;;;;;;19.04;88.54;101545.63;5093427;28;20032;-68
2023/08/09 09:49:59;;;;;;;18.45;13.43;;;;;;;19.18;87.67;101552.53;5093330;28;20036;-68
2023/08/09 09:52:27;;;;;;;19.35;12.15;;;;;;;19.30;85.71;101548.13;5093057;28;20578;-68
2023/08/09 09:54:55;;;;;;;18.52;12.60;;;;;;;19.36;83.07;101551.50;5091713;28;20437;-68
2023/08/09 09:57:20;;;;;;;19.65;13.52;;;;;;;19.51;83.56;101545.19;5092998;28;20024;-68
2023/08/09 09:59:46;;;;;;;19.02;12.57;;;;;;;19.65;84.54;101542.03;5091548;28;20080;-68
2023/08/09 10:02:11;;;;;;;20.45;13.15;;;;;;;19.62;84.96;101551.19;5093247;28;20056;-68
2023/08/09 10:04:38;;;;;;;21.17;12.90;;;;;;;19.66;84.17;101546.47;5093111;28;20501;-68
2023/08/09 10:07:03;;;;;;;19.25;13.30;;;;;;;19.72;84.74;101542.28;5093098;28;20106;-67
2023/08/09 10:09:29;;;;;;;19.55;13.77;;;;;;;19.87;84.43;101528.72;5092951;28;20023;-68
2023/08/09 10:11:58;;;;;;;19.48;13.40;;;;;;;19.90;83.09;101530.81;5091298;28;20027;-69
2023/08/09 10:14:26;;;;;;;20.42;14.38;;;;;;;20.02;84.78;101533.63;5092855;28;20062;-68
2023/08/09 10:16:51;;;;;;;20.58;14.88;;;;;;;20.17;83.19;101534.84;5091139;28;20407;-68
2023/08/09 10:19:20;;;;;;;20.48;14.50;;;;;;;20.37;86.43;101533.03;5092867;28;20024;-68
2023/08/09 10:21:46;;;;;;;20.02;13.85;;;;;;;20.47;81.86;101536.50;5092619;28;20032;-68
2023/08/09 10:24:12;;;;;;;21.05;14.05;;;;;;;20.45;80.72;101539.66;5092501;28;20024;-68
2023/08/09 10:26:39;;;;;;;20.90;13.70;;;;;;;20.39;79.51;101529.84;5092557;28;20101;-68
2023/08/09 10:29:12;;;;;;;20.42;13.77;;;;;;;20.24;81.42;101534.25;5092448;28;20044;-68
2023/08/09 10:31:59;;;;;;;20.95;14.55;;;;;;;20.07;82.65;101536.16;5092381;28;20531;-68
2023/08/09 10:34:42;;;;;;;22.33;15.82;;;;;;;20.01;80.70;101545.19;5091175;28;20024;-68
2023/08/09 10:37:09;;;;;;;21.40;15.40;;;;;;;20.17;82.05;101546.06;5092289;28;20032;-70
2023/08/09 10:39:36;;;;;;;21.35;15.43;;;;;;;20.34;82.80;101552.59;5092408;28;20278;-68
2023/08/09 10:42:01;;;;;;;21.35;15.07;;;;;;;20.41;80.11;101545.19;5092152;28;20043;-68
2023/08/09 10:44:39;;;;;;;21.20;15.55;;;;;;;20.54;81.75;101551.59;5092214;28;20028;-69
2023/08/09 10:47:19;;;;;;;24.25;17.00;;;;;;;20.68;80.54;101548.38;5092469;28;20039;-68
2023/08/09 10:50:00;;;;;;;22.85;17.10;;;;;;;20.72;79.65;101546.47;5092233;28;20039;-68
2023/08/09 10:52:34;;;;;;;22.70;16.65;;;;;;;20.70;78.95;101554.44;5092232;28;20032;-69
2023/08/09 10:55:18;;;;;;;21.80;17.33;;;;;;;20.75;82.63;101546.97;5091921;28;20476;-68
2023/08/09 10:57:44;;;;;;;23.20;17.55;;;;;;;20.79;78.79;101557.13;5092380;28;20050;-67
2023/08/09 11:00:12;;;;;;;22.25;16.52;;;;;;;20.80;79.35;101552.31;5091871;28;20469;-66